Terminal Aerodrome Forecast
Issued by NWS

Home | Current Version | Previous Version | Text Only | Print | Product List | Glossary Off
Versions: 1 2 3 4 5 6 7 8 9 10 11 12 13

433
FTUS43 KGRB 091133
TAFATW
TAF
KATW 091133Z 0912/1012 30010KT P6SM -SN SCT025 OVC040
      TEMPO 0912/0915 6SM -SN BKN025
     FM091500 33014G22KT P6SM -SN BKN040 OVC080
      TEMPO 0922/1002 4SM -SN BKN025
     FM100400 32012G20KT P6SM BKN040
      TEMPO 1008/1012 SCT040=

USA.gov is the U.S. government's official web portal to all federal, state and local government web resources and services.